createdAt,value
2023-03-04T00:01:18.917Z,96519.53
2023-03-04T00:04:22.652Z,96516.22
2023-03-04T00:07:25.366Z,96516.28
2023-03-04T00:10:27.508Z,96525.94
2023-03-04T00:13:29.090Z,96527.00
2023-03-04T00:16:30.860Z,96524.44
2023-03-04T00:19:33.007Z,96529.78
2023-03-04T00:22:34.655Z,96522.94
2023-03-04T00:25:36.236Z,96535.31
2023-03-04T00:28:38.719Z,96525.81
2023-03-04T00:31:40.325Z,96532.00
2023-03-04T00:34:43.165Z,96526.09
2023-03-04T00:37:45.531Z,96531.50
2023-03-04T00:40:47.590Z,96537.69
2023-03-04T00:43:49.239Z,96531.78
2023-03-04T00:46:52.965Z,96538.88
2023-03-04T00:49:56.179Z,96538.13
2023-03-04T00:52:58.004Z,96535.66
2023-03-04T00:55:59.607Z,96541.78
2023-03-04T00:59:01.237Z,96534.91
2023-03-04T01:02:02.950Z,96534.97
2023-03-04T01:05:06.021Z,96521.19
2023-03-04T01:08:07.998Z,96516.88
2023-03-04T01:11:09.621Z,96520.44
2023-03-04T01:14:11.272Z,96512.75
2023-03-04T01:17:12.924Z,96494.81
2023-03-04T01:20:14.826Z,96503.34
2023-03-04T01:23:16.371Z,96506.88
2023-03-04T01:26:19.537Z,96502.56
2023-03-04T01:29:22.534Z,96498.34
2023-03-04T01:32:25.484Z,96508.09
2023-03-04T01:35:27.494Z,96508.16
2023-03-04T01:38:29.287Z,96494.31
2023-03-04T01:41:31.745Z,96495.31
2023-03-04T01:44:34.750Z,96495.31
2023-03-04T01:47:36.920Z,96483.97
2023-03-04T01:50:39.386Z,96484.88
2023-03-04T01:53:41.776Z,96483.19
2023-03-04T01:56:48.961Z,96487.72
2023-03-04T02:00:33.176Z,96479.91
2023-03-04T02:03:35.367Z,96480.91
2023-03-04T02:06:39.551Z,96470.50
2023-03-04T02:09:42.053Z,96475.84
2023-03-04T02:12:50.821Z,96471.63
2023-03-04T02:15:53.316Z,96464.84
2023-03-04T02:18:55.658Z,96475.31
2023-03-04T02:21:58.449Z,96466.63
2023-03-04T02:25:09.150Z,96472.88
2023-03-04T02:28:12.302Z,96471.19
2023-03-04T02:31:26.275Z,96474.66
2023-03-04T02:34:33.265Z,96474.81
2023-03-04T02:37:35.081Z,96472.38
2023-03-04T02:40:38.463Z,96474.16
2023-03-04T02:43:40.923Z,96469.06
2023-03-04T02:46:43.226Z,96478.72
2023-03-04T02:49:46.489Z,96478.81
2023-03-04T02:52:48.546Z,96466.72
2023-03-04T02:55:51.031Z,96474.66
2023-03-04T02:58:57.477Z,96469.47
2023-03-04T03:02:00.903Z,96466.13
2023-03-04T03:05:02.837Z,96471.53
2023-03-04T03:08:04.884Z,96469.75
2023-03-04T03:11:08.863Z,96479.47
2023-03-04T03:14:12.916Z,96475.06
2023-03-04T03:17:15.284Z,96478.72
2023-03-04T03:20:18.217Z,96469.25
2023-03-04T03:23:22.460Z,96478.03
2023-03-04T03:26:24.722Z,96475.47
2023-03-04T03:29:27.805Z,96469.56
2023-03-04T03:32:29.995Z,96471.34
2023-03-04T03:35:31.791Z,96468.88
2023-03-04T03:38:34.450Z,96468.88
2023-03-04T03:41:36.093Z,96475.16
2023-03-04T03:44:37.759Z,96460.34
2023-03-04T03:47:40.280Z,96460.41
2023-03-04T03:50:41.874Z,96452.81
2023-03-04T03:53:43.497Z,96465.66
2023-03-04T03:56:45.147Z,96466.66
2023-03-04T03:59:47.154Z,96471.06
2023-03-04T04:02:49.466Z,96469.28
2023-03-04T04:05:52.277Z,96466.84
2023-03-04T04:08:53.942Z,96459.84
2023-03-04T04:11:56.934Z,96470.38
2023-03-04T04:14:59.461Z,96466.31
2023-03-04T04:18:01.007Z,96467.19
2023-03-04T04:21:04.379Z,96465.47
2023-03-04T04:24:05.984Z,96468.16
2023-03-04T04:27:07.581Z,96457.00
2023-03-04T04:30:10.054Z,96468.44
2023-03-04T04:33:12.171Z,96468.66
2023-03-04T04:36:16.406Z,96470.34
2023-03-04T04:39:18.850Z,96466.94
2023-03-04T04:42:22.156Z,96457.50
2023-03-04T04:45:25.418Z,96465.50
2023-03-04T04:48:27.066Z,96456.03
2023-03-04T04:51:29.140Z,96461.38
2023-03-04T04:54:31.535Z,96462.38
2023-03-04T04:57:33.791Z,96465.91
2023-03-04T05:00:35.958Z,96462.50
2023-03-04T05:03:39.351Z,96464.47
2023-03-04T05:06:41.677Z,96466.16
2023-03-04T05:09:43.787Z,96468.91
2023-03-04T05:12:45.480Z,96474.16
2023-03-04T05:15:48.137Z,96470.88
2023-03-04T05:18:49.852Z,96473.56
2023-03-04T05:21:52.493Z,96475.41
2023-03-04T05:24:54.683Z,96468.56
2023-03-04T05:27:58.305Z,96471.19
2023-03-04T05:31:00.297Z,96475.66
2023-03-04T05:34:02.112Z,96478.34
2023-03-04T05:37:03.790Z,96472.31
2023-03-04T05:40:07.236Z,96480.19
2023-03-04T05:43:10.299Z,96474.47
2023-03-04T05:46:16.136Z,96478.66
2023-03-04T05:49:18.342Z,96478.81
2023-03-04T05:52:22.632Z,96471.19
2023-03-04T05:55:26.639Z,96475.56
2023-03-04T05:58:29.349Z,96474.81
2023-03-04T06:01:32.496Z,96481.06
2023-03-04T06:04:34.264Z,96476.03
2023-03-04T06:07:36.385Z,96481.97
2023-03-04T06:10:40.491Z,96482.97
2023-03-04T06:13:42.629Z,96491.75
2023-03-04T06:16:44.319Z,96490.88
2023-03-04T06:19:46.452Z,96493.50
2023-03-04T06:22:48.053Z,96490.81
2023-03-04T06:25:54.002Z,96501.22
2023-03-04T06:28:57.486Z,96499.53
2023-03-04T06:31:59.790Z,96507.31
2023-03-04T06:35:01.512Z,96506.22
2023-03-04T06:38:04.337Z,96502.75
2023-03-04T06:41:13.634Z,96505.16
2023-03-04T06:44:16.410Z,96513.75
2023-03-04T06:47:19.249Z,96513.53
2023-03-04T06:50:23.038Z,96502.91
2023-03-04T06:53:26.342Z,96513.31
2023-03-04T06:56:58.343Z,96521.63
2023-03-04T07:00:01.541Z,96523.16
2023-03-04T07:03:03.366Z,96524.63
2023-03-04T07:06:06.194Z,96531.31
2023-03-04T07:09:08.957Z,96529.47
2023-03-04T07:12:10.718Z,96543.09
2023-03-04T07:15:13.608Z,96543.63
2023-03-04T07:18:17.998Z,96543.38
2023-03-04T07:21:23.749Z,96543.16
2023-03-04T07:24:28.117Z,96541.22
2023-03-04T07:27:30.249Z,96544.44
2023-03-04T07:30:33.252Z,96544.97
2023-03-04T07:33:35.437Z,96546.50
2023-03-04T07:36:39.672Z,96544.09
2023-03-04T07:39:42.727Z,96555.72
2023-03-04T07:42:44.997Z,96548.03
2023-03-04T07:45:50.284Z,96550.91
2023-03-04T07:48:54.122Z,96558.00
2023-03-04T07:51:57.532Z,96551.34
2023-03-04T07:55:00.730Z,96548.03
2023-03-04T07:58:03.264Z,96551.75
2023-03-04T08:01:28.417Z,96551.06
2023-03-04T08:04:30.960Z,96553.91
2023-03-04T08:07:33.199Z,96550.69
2023-03-04T08:10:36.578Z,96550.91
2023-03-04T08:13:39.206Z,96556.56
2023-03-04T08:16:41.781Z,96551.53
2023-03-04T08:19:43.844Z,96551.72
2023-03-04T08:22:46.001Z,96550.44
2023-03-04T08:25:48.340Z,96551.38
2023-03-04T08:28:50.981Z,96551.69
2023-03-04T08:31:54.443Z,96552.72
2023-03-04T08:34:57.018Z,96545.41
2023-03-04T08:38:02.406Z,96554.41
2023-03-04T08:41:05.042Z,96557.34
2023-03-04T08:44:08.273Z,96552.47
2023-03-04T08:47:10.941Z,96555.81
2023-03-04T08:50:12.934Z,96567.38
2023-03-04T08:53:15.222Z,96566.06
2023-03-04T08:56:17.287Z,96559.47
2023-03-04T08:59:18.891Z,96569.59
2023-03-04T09:02:20.540Z,96563.22
2023-03-04T09:05:24.839Z,96566.50
2023-03-04T09:08:26.526Z,96564.31
2023-03-04T09:11:29.508Z,96571.19
2023-03-04T09:14:35.675Z,96563.06
2023-03-04T09:17:37.949Z,96556.78
2023-03-04T09:20:39.994Z,96564.38
2023-03-04T09:23:42.138Z,96551.31
2023-03-04T09:26:45.917Z,96556.38
2023-03-04T09:29:47.557Z,96558.81
2023-03-04T09:32:49.828Z,96566.59
2023-03-04T09:35:52.248Z,96563.88
2023-03-04T09:38:54.834Z,96560.22
2023-03-04T09:42:01.391Z,96566.31
2023-03-04T09:45:07.983Z,96568.88
2023-03-04T09:48:15.738Z,96567.72
2023-03-04T09:51:41.473Z,96564.22
2023-03-04T09:55:05.193Z,96569.94
2023-03-04T09:58:49.472Z,96576.72
2023-03-04T10:02:00.471Z,96564.19
2023-03-04T10:05:05.922Z,96572.75
2023-03-04T10:08:32.372Z,96564.19
2023-03-04T10:11:49.609Z,96569.09
2023-03-04T10:14:58.420Z,96570.25
2023-03-04T10:18:22.447Z,96567.81
2023-03-04T10:21:39.037Z,96573.06
2023-03-04T10:24:40.657Z,96572.84
2023-03-04T10:27:44.162Z,96561.00
2023-03-04T10:31:02.347Z,96560.03
2023-03-04T10:34:07.097Z,96566.28
2023-03-04T10:37:11.774Z,96556.94
2023-03-04T10:40:24.433Z,96565.91
2023-03-04T10:43:27.777Z,96566.94
2023-03-04T10:46:30.830Z,96571.38
2023-03-04T10:49:32.425Z,96563.28
2023-03-04T10:52:52.629Z,96570.34
2023-03-04T10:55:56.372Z,96556.09
2023-03-04T10:59:36.950Z,96561.66
2023-03-04T11:02:39.827Z,96558.91
2023-03-04T11:05:41.881Z,96557.97
2023-03-04T11:08:44.325Z,96556.81
2023-03-04T11:11:46.955Z,96551.16
2023-03-04T11:14:50.927Z,96538.53
2023-03-04T11:17:56.329Z,96546.88
2023-03-04T11:20:59.921Z,96543.94
2023-03-04T11:24:04.554Z,96543.63
2023-03-04T11:27:15.725Z,96533.00
2023-03-04T11:30:36.830Z,96538.31
2023-03-04T11:33:49.416Z,96538.84
2023-03-04T11:36:59.322Z,96536.72
2023-03-04T11:40:16.211Z,96526.09
2023-03-04T11:43:27.462Z,96532.53
2023-03-04T11:46:47.916Z,96531.28
2023-03-04T11:50:03.547Z,96521.25
2023-03-04T11:53:23.592Z,96528.03
2023-03-04T11:56:46.658Z,96520.13
2023-03-04T12:00:01.296Z,96515.13
2023-03-04T12:03:44.909Z,96517.25
2023-03-04T12:06:57.725Z,96512.38
2023-03-04T12:10:15.022Z,96505.44
2023-03-04T12:13:28.059Z,96507.34
2023-03-04T12:16:35.846Z,96507.78
2023-03-04T12:20:04.522Z,96500.06
2023-03-04T12:23:50.811Z,96502.78
2023-03-04T12:27:11.804Z,96489.84
2023-03-04T12:30:36.876Z,96485.91
2023-03-04T12:33:52.890Z,96484.66
2023-03-04T12:37:18.977Z,96479.47
2023-03-04T12:40:23.796Z,96480.03
2023-03-04T12:44:01.330Z,96475.69
2023-03-04T12:47:43.020Z,96461.56
2023-03-04T12:51:20.690Z,96457.41
2023-03-04T12:54:32.803Z,96450.03
2023-03-04T12:57:35.789Z,96448.25
2023-03-04T13:01:28.058Z,96452.75
2023-03-04T13:05:08.874Z,96442.00
2023-03-04T13:08:29.266Z,96437.00
2023-03-04T13:11:35.406Z,96437.97
2023-03-04T13:14:37.293Z,96430.03
2023-03-04T13:17:39.955Z,96430.75
2023-03-04T13:20:43.998Z,96427.81
2023-03-04T13:23:45.615Z,96422.28
2023-03-04T13:26:47.306Z,96424.31
2023-03-04T13:29:49.012Z,96424.06
2023-03-04T13:32:50.640Z,96415.34
2023-03-04T13:36:08.898Z,96411.41
2023-03-04T13:39:16.211Z,96413.22
2023-03-04T13:42:43.951Z,96410.47
2023-03-04T13:45:45.578Z,96408.13
2023-03-04T13:48:50.292Z,96406.13
2023-03-04T13:51:52.134Z,96413.22
2023-03-04T13:55:32.416Z,96406.97
2023-03-04T13:58:36.660Z,96408.25
2023-03-04T14:01:43.659Z,96401.81
2023-03-04T14:05:05.842Z,96401.16
2023-03-04T14:08:19.279Z,96415.09
2023-03-04T14:11:40.874Z,96410.56
2023-03-04T14:14:50.240Z,96405.59
2023-03-04T14:17:54.771Z,96405.50
2023-03-04T14:21:00.355Z,96406.34
2023-03-04T14:24:13.599Z,96400.09
2023-03-04T14:27:15.216Z,96416.16
2023-03-04T14:30:35.514Z,96400.00
2023-03-04T14:33:54.292Z,96395.03
2023-03-04T14:36:55.984Z,96398.03
2023-03-04T14:39:59.155Z,96390.22
2023-03-04T14:43:18.238Z,96394.78
2023-03-04T14:46:22.360Z,96388.13
2023-03-04T14:49:24.245Z,96392.38
2023-03-04T14:52:38.501Z,96393.34
2023-03-04T14:55:55.377Z,96394.91
2023-03-04T14:59:01.251Z,96397.13
2023-03-04T15:02:38.366Z,96382.72
2023-03-04T15:05:41.875Z,96385.78
2023-03-04T15:08:44.830Z,96381.97
2023-03-04T15:11:50.972Z,96378.53
2023-03-04T15:15:00.882Z,96381.38
2023-03-04T15:18:26.487Z,96378.53
2023-03-04T15:21:33.141Z,96376.56
2023-03-04T15:24:35.171Z,96376.75
2023-03-04T15:27:37.541Z,96378.91
2023-03-04T15:30:39.634Z,96379.28
2023-03-04T15:33:41.269Z,96382.78
2023-03-04T15:36:46.741Z,96368.47
2023-03-04T15:39:48.786Z,96375.91
2023-03-04T15:42:50.490Z,96380.72
2023-03-04T15:45:53.072Z,96374.88
2023-03-04T15:48:54.712Z,96373.06
2023-03-04T15:51:56.374Z,96380.09
2023-03-04T15:55:01.079Z,96380.97
2023-03-04T15:58:07.031Z,96387.97
2023-03-04T16:01:14.934Z,96394.00
2023-03-04T16:04:17.382Z,96382.53
2023-03-04T16:07:22.582Z,96389.69
2023-03-04T16:10:31.210Z,96388.34
2023-03-04T16:13:33.468Z,96382.84
2023-03-04T16:16:36.171Z,96397.94
2023-03-04T16:19:38.210Z,96391.41
2023-03-04T16:22:41.832Z,96397.19
2023-03-04T16:25:46.953Z,96395.94
2023-03-04T16:28:48.962Z,96389.47
2023-03-04T16:31:50.585Z,96397.53
2023-03-04T16:34:53.275Z,96403.31
2023-03-04T16:37:55.571Z,96406.97
2023-03-04T16:40:59.505Z,96398.66
2023-03-04T16:44:04.091Z,96404.00
2023-03-04T16:47:07.957Z,96417.50
2023-03-04T16:50:16.688Z,96417.25
2023-03-04T16:53:27.010Z,96423.03
2023-03-04T16:56:29.041Z,96421.03
2023-03-04T16:59:32.761Z,96425.72
2023-03-04T17:02:35.291Z,96422.47
2023-03-04T17:05:38.353Z,96429.31
2023-03-04T17:08:40.113Z,96433.84
2023-03-04T17:11:41.871Z,96429.53
2023-03-04T17:14:43.497Z,96436.13
2023-03-04T17:17:45.830Z,96436.81
2023-03-04T17:20:47.436Z,96450.06
2023-03-04T17:23:49.846Z,96449.44
2023-03-04T17:26:51.804Z,96454.88
2023-03-04T17:29:53.363Z,96459.50
2023-03-04T17:32:55.008Z,96462.41
2023-03-04T17:35:58.259Z,96462.91
2023-03-04T17:39:01.693Z,96462.06
2023-03-04T17:42:05.310Z,96464.13
2023-03-04T17:45:08.186Z,96474.94
2023-03-04T17:48:15.337Z,96481.06
2023-03-04T17:51:18.600Z,96474.09
2023-03-04T17:54:20.231Z,96487.25
2023-03-04T17:57:21.933Z,96482.38
2023-03-04T18:00:24.011Z,96494.38
2023-03-04T18:03:25.811Z,96487.72
2023-03-04T18:06:27.478Z,96496.47
2023-03-04T18:09:29.140Z,96495.78
2023-03-04T18:12:30.904Z,96497.59
2023-03-04T18:15:33.855Z,96491.03
2023-03-04T18:18:37.920Z,96493.66
2023-03-04T18:21:41.400Z,96494.59
2023-03-04T18:24:43.787Z,96494.78
2023-03-04T18:27:48.435Z,96491.59
2023-03-04T18:30:54.172Z,96488.09
2023-03-04T18:33:56.059Z,96502.88
2023-03-04T18:37:01.168Z,96488.56
2023-03-04T18:40:16.068Z,96505.59
2023-03-04T18:43:19.249Z,96496.16
2023-03-04T18:46:34.072Z,96491.66
2023-03-04T18:49:38.217Z,96496.09
2023-03-04T18:52:41.671Z,96492.59
2023-03-04T18:55:45.485Z,96484.94
2023-03-04T18:58:51.471Z,96489.88
2023-03-04T19:01:54.430Z,96490.81
2023-03-04T19:04:58.706Z,96489.13
2023-03-04T19:08:02.004Z,96483.22
2023-03-04T19:11:08.200Z,96490.34
2023-03-04T19:14:12.419Z,96491.28
2023-03-04T19:17:14.873Z,96485.19
2023-03-04T19:20:18.476Z,96494.59
2023-03-04T19:23:20.136Z,96484.94
2023-03-04T19:26:22.696Z,96489.88
2023-03-04T19:29:24.372Z,96487.91
2023-03-04T19:32:26.811Z,96494.22
2023-03-04T19:35:28.914Z,96499.47
2023-03-04T19:38:34.789Z,96496.75
2023-03-04T19:41:37.373Z,96490.53
2023-03-04T19:44:44.515Z,96486.13
2023-03-04T19:47:46.539Z,96486.78
2023-03-04T19:50:49.703Z,96487.63
2023-03-04T19:53:51.896Z,96494.59
2023-03-04T19:56:54.062Z,96493.66
2023-03-04T19:59:55.854Z,96483.31
2023-03-04T20:02:57.583Z,96490.91
2023-03-04T20:06:08.346Z,96489.22
2023-03-04T20:09:10.972Z,96486.72
2023-03-04T20:12:13.323Z,96490.06
2023-03-04T20:15:16.293Z,96491.03
2023-03-04T20:18:18.354Z,96489.03
2023-03-04T20:21:20.079Z,96483.03
2023-03-04T20:24:23.248Z,96481.44
2023-03-04T20:27:25.084Z,96483.97
2023-03-04T20:30:26.729Z,96474.41
2023-03-04T20:33:28.330Z,96488.03
2023-03-04T20:36:30.929Z,96475.81
2023-03-04T20:39:32.653Z,96479.19
2023-03-04T20:42:34.730Z,96470.47
2023-03-04T20:45:37.719Z,96478.22
2023-03-04T20:48:40.279Z,96470.53
2023-03-04T20:51:44.012Z,96479.06
2023-03-04T20:54:45.701Z,96465.91
2023-03-04T20:57:49.501Z,96461.50
2023-03-04T21:00:51.659Z,96448.56
2023-03-04T21:03:53.690Z,96449.22
2023-03-04T21:06:55.350Z,96438.78
2023-03-04T21:09:57.468Z,96440.56
2023-03-04T21:12:59.075Z,96440.47
2023-03-04T21:16:01.314Z,96431.28
2023-03-04T21:19:03.933Z,96435.50
2023-03-04T21:22:06.935Z,96431.09
2023-03-04T21:25:08.832Z,96431.00
2023-03-04T21:28:11.573Z,96431.94
2023-03-04T21:31:22.689Z,96440.75
2023-03-04T21:34:31.885Z,96439.81
2023-03-04T21:37:33.775Z,96439.16
2023-03-04T21:40:36.951Z,96440.00
2023-03-04T21:43:38.969Z,96428.72
2023-03-04T21:46:43.560Z,96434.84
2023-03-04T21:49:46.796Z,96429.88
2023-03-04T21:52:48.765Z,96431.56
2023-03-04T21:55:53.145Z,96416.81
2023-03-04T21:58:54.990Z,96415.88
2023-03-04T22:01:57.094Z,96414.94
2023-03-04T22:05:00.526Z,96418.50
2023-03-04T22:08:02.404Z,96420.84
2023-03-04T22:11:06.795Z,96419.19
2023-03-04T22:14:11.884Z,96425.16
2023-03-04T22:17:15.526Z,96419.34
2023-03-04T22:20:17.516Z,96425.28
2023-03-04T22:23:24.177Z,96410.53
2023-03-04T22:26:32.001Z,96414.66
2023-03-04T22:29:33.770Z,96413.06
2023-03-04T22:32:35.463Z,96418.97
2023-03-04T22:35:41.710Z,96415.78
2023-03-04T22:38:44.638Z,96406.38
2023-03-04T22:41:47.840Z,96393.44
2023-03-04T22:44:50.586Z,96399.34
2023-03-04T22:47:53.227Z,96400.19
2023-03-04T22:50:54.881Z,96399.56
2023-03-04T22:53:57.562Z,96399.47
2023-03-04T22:56:59.549Z,96400.41
2023-03-04T23:00:01.500Z,96394.28
2023-03-04T23:03:03.580Z,96387.44
2023-03-04T23:06:08.753Z,96390.06
2023-03-04T23:09:10.361Z,96392.78
2023-03-04T23:12:13.719Z,96386.13
2023-03-04T23:15:17.527Z,96390.16
2023-03-04T23:18:20.784Z,96385.94
2023-03-04T23:21:24.515Z,96389.31
2023-03-04T23:24:27.152Z,96390.44
2023-03-04T23:27:28.967Z,96385.19
2023-03-04T23:30:34.611Z,96391.00
2023-03-04T23:33:39.665Z,96381.31
2023-03-04T23:36:42.004Z,96385.09
2023-03-04T23:39:44.815Z,96385.94
2023-03-04T23:42:47.667Z,96374.50
2023-03-04T23:45:50.224Z,96368.56
2023-03-04T23:48:53.336Z,96375.44
2023-03-04T23:51:55.507Z,96360.69
2023-03-04T23:54:57.920Z,96365.19
2023-03-04T23:57:59.745Z,96364.25
